createdAt,value
2022-12-01T00:00:20.435Z,101972.19
2022-12-01T00:02:47.757Z,101978.50
2022-12-01T00:05:16.802Z,101968.56
2022-12-01T00:07:44.084Z,101976.69
2022-12-01T00:10:27.135Z,101966.66
2022-12-01T00:12:55.725Z,101967.63
2022-12-01T00:15:25.929Z,101968.56
2022-12-01T00:17:53.499Z,101958.03
2022-12-01T00:20:22.209Z,101960.56
2022-12-01T00:22:50.260Z,101968.13
2022-12-01T00:25:19.502Z,101934.94
2022-12-01T00:27:48.995Z,101958.25
2022-12-01T00:30:17.357Z,101959.09
2022-12-01T00:32:44.966Z,101958.13
2022-12-01T00:35:13.577Z,101955.56
2022-12-01T00:37:42.353Z,101947.91
2022-12-01T00:40:11.671Z,101960.25
2022-12-01T00:42:39.731Z,101954.34
2022-12-01T00:45:08.430Z,101960.69
2022-12-01T00:47:35.933Z,101954.03
2022-12-01T00:50:03.311Z,101959.78
2022-12-01T00:52:30.798Z,101962.16
2022-12-01T00:54:59.418Z,101966.03
2022-12-01T00:57:26.660Z,101957.53
2022-12-01T00:59:53.891Z,101965.09
2022-12-01T01:02:21.194Z,101956.06
2022-12-01T01:04:48.511Z,101961.16
2022-12-01T01:07:16.232Z,101959.56
2022-12-01T01:09:43.447Z,101967.72
2022-12-01T01:12:12.346Z,101956.22
2022-12-01T01:14:39.840Z,101967.72
2022-12-01T01:17:07.391Z,101966.69
2022-12-01T01:19:34.871Z,101959.88
2022-12-01T01:22:02.139Z,101959.63
2022-12-01T01:24:29.653Z,101968.72
2022-12-01T01:26:56.959Z,101967.69
2022-12-01T01:29:25.767Z,101960.22
2022-12-01T01:31:53.598Z,101956.81
2022-12-01T01:34:20.889Z,101955.06
2022-12-01T01:36:48.271Z,101952.44
2022-12-01T01:39:15.916Z,101949.97
2022-12-01T01:41:43.442Z,101946.06
2022-12-01T01:44:50.291Z,101953.78
2022-12-01T01:47:21.164Z,101948.97
2022-12-01T01:49:49.497Z,101946.63
2022-12-01T01:52:18.674Z,101942.53
2022-12-01T01:54:50.844Z,101926.75
2022-12-01T01:57:24.111Z,101940.94
2022-12-01T01:59:57.303Z,101945.00
2022-12-01T02:02:25.753Z,101951.47
2022-12-01T02:05:00.849Z,101934.84
2022-12-01T02:07:28.512Z,101939.78
2022-12-01T02:09:56.475Z,101943.81
2022-12-01T02:12:42.065Z,101942.38
2022-12-01T02:15:38.189Z,101957.06
2022-12-01T02:18:22.415Z,101934.19
2022-12-01T02:21:25.065Z,101953.50
2022-12-01T02:24:42.395Z,101946.78
2022-12-01T02:27:24.091Z,101951.03
2022-12-01T02:30:08.301Z,101948.69
2022-12-01T02:32:48.085Z,101936.03
2022-12-01T02:35:20.922Z,101947.69
2022-12-01T02:37:54.987Z,101950.88
2022-12-01T02:40:27.668Z,101949.97
2022-12-01T02:43:03.439Z,101952.38
2022-12-01T02:45:37.353Z,101953.94
2022-12-01T02:48:08.834Z,101948.13
2022-12-01T02:50:38.226Z,101946.34
2022-12-01T02:53:08.486Z,101926.91
2022-12-01T02:55:36.108Z,101942.75
2022-12-01T02:58:12.515Z,101944.31
2022-12-01T03:00:43.524Z,101934.84
2022-12-01T03:03:32.970Z,101934.56
2022-12-01T03:06:11.083Z,101931.22
2022-12-01T03:08:49.133Z,101939.63
2022-12-01T03:11:32.653Z,101938.72
2022-12-01T03:14:11.347Z,101942.75
2022-12-01T03:16:48.342Z,101935.91
2022-12-01T03:19:27.319Z,101925.16
2022-12-01T03:22:02.332Z,101929.44
2022-12-01T03:24:33.150Z,101934.56
2022-12-01T03:27:02.930Z,101927.69
2022-12-01T03:29:33.765Z,101928.53
2022-12-01T03:32:06.394Z,101940.34
2022-12-01T03:34:41.396Z,101938.19
2022-12-01T03:37:15.097Z,101936.59
2022-12-01T03:39:44.368Z,101932.50
2022-12-01T03:42:18.330Z,101941.03
2022-12-01T03:44:49.747Z,101935.19
2022-12-01T03:47:20.933Z,101937.72
2022-12-01T03:49:52.368Z,101938.56
2022-12-01T03:52:29.233Z,101924.94
2022-12-01T03:55:08.161Z,101940.19
2022-12-01T03:57:44.395Z,101940.34
2022-12-01T04:00:14.146Z,101937.06
2022-12-01T04:02:42.412Z,101949.34
2022-12-01T04:05:11.632Z,101935.50
2022-12-01T04:07:39.698Z,101939.75
2022-12-01T04:10:08.374Z,101939.69
2022-12-01T04:12:35.852Z,101945.53
2022-12-01T04:15:05.382Z,101931.75
2022-12-01T04:17:32.783Z,101937.75
2022-12-01T04:20:00.357Z,101937.38
2022-12-01T04:22:29.070Z,101936.69
2022-12-01T04:24:56.361Z,101940.88
2022-12-01T04:27:23.791Z,101929.16
2022-12-01T04:29:51.541Z,101945.09
2022-12-01T04:32:18.989Z,101938.56
2022-12-01T04:34:46.231Z,101945.16
2022-12-01T04:37:13.683Z,101951.69
2022-12-01T04:39:42.439Z,101951.56
2022-12-01T04:42:10.651Z,101959.53
2022-12-01T04:44:38.107Z,101951.16
2022-12-01T04:47:06.666Z,101949.13
2022-12-01T04:49:35.327Z,101937.44
2022-12-01T04:52:02.525Z,101951.44
2022-12-01T04:54:30.024Z,101949.00
2022-12-01T04:56:58.633Z,101945.78
2022-12-01T04:59:25.992Z,101945.66
2022-12-01T05:01:53.264Z,101939.16
2022-12-01T05:04:20.717Z,101943.25
2022-12-01T05:06:48.078Z,101949.16
2022-12-01T05:09:17.717Z,101946.22
2022-12-01T05:11:45.508Z,101951.47
2022-12-01T05:14:14.200Z,101954.09
2022-12-01T05:16:41.566Z,101945.78
2022-12-01T05:19:27.686Z,101950.19
2022-12-01T05:21:54.907Z,101956.09
2022-12-01T05:24:22.579Z,101955.03
2022-12-01T05:26:49.770Z,101960.88
2022-12-01T05:29:18.614Z,101956.72
2022-12-01T05:31:46.763Z,101959.94
2022-12-01T05:34:14.124Z,101955.78
2022-12-01T05:36:42.091Z,101964.88
2022-12-01T05:39:09.543Z,101954.19
2022-12-01T05:41:37.015Z,101955.03
2022-12-01T05:44:04.424Z,101956.66
2022-12-01T05:46:33.181Z,101953.47
2022-12-01T05:49:00.533Z,101968.25
2022-12-01T05:51:27.806Z,101968.88
2022-12-01T05:53:55.214Z,101966.19
2022-12-01T05:56:22.507Z,101965.28
2022-12-01T05:58:49.870Z,101961.19
2022-12-01T06:01:17.371Z,101968.66
2022-12-01T06:03:46.070Z,101971.28
2022-12-01T06:06:13.483Z,101974.72
2022-12-01T06:08:40.851Z,101962.25
2022-12-01T06:11:08.144Z,101980.94
2022-12-01T06:13:35.395Z,101974.56
2022-12-01T06:16:04.810Z,101983.75
2022-12-01T06:18:33.761Z,101986.72
2022-12-01T06:21:02.864Z,101987.28
2022-12-01T06:23:30.771Z,101995.16
2022-12-01T06:25:58.464Z,101993.97
2022-12-01T06:28:25.819Z,101990.56
2022-12-01T06:30:56.523Z,101979.56
2022-12-01T06:33:26.765Z,101983.13
2022-12-01T06:35:58.254Z,101982.63
2022-12-01T06:38:27.078Z,101990.28
2022-12-01T06:40:54.309Z,101989.50
2022-12-01T06:43:21.703Z,101988.91
2022-12-01T06:45:49.053Z,101984.91
2022-12-01T06:48:16.364Z,101987.31
2022-12-01T06:50:43.650Z,101990.53
2022-12-01T06:53:11.475Z,101992.03
2022-12-01T06:55:40.225Z,101994.38
2022-12-01T06:58:07.649Z,101982.63
2022-12-01T07:00:35.073Z,101975.94
2022-12-01T07:03:03.288Z,101984.13
2022-12-01T07:05:30.566Z,101985.91
2022-12-01T07:07:59.699Z,101989.38
2022-12-01T07:10:28.108Z,101994.56
2022-12-01T07:12:57.528Z,101993.94
2022-12-01T07:15:24.977Z,101991.81
2022-12-01T07:17:52.437Z,101985.53
2022-12-01T07:20:20.131Z,101988.22
2022-12-01T07:22:47.680Z,101980.06
2022-12-01T07:25:15.275Z,101979.22
2022-12-01T07:27:42.643Z,101973.56
2022-12-01T07:30:12.213Z,101983.75
2022-12-01T07:32:40.434Z,101985.66
2022-12-01T07:35:10.237Z,101985.97
2022-12-01T07:37:37.676Z,101980.63
2022-12-01T07:40:06.391Z,101980.34
2022-12-01T07:42:33.631Z,101991.53
2022-12-01T07:45:01.060Z,101992.03
2022-12-01T07:47:29.678Z,101975.00
2022-12-01T07:49:56.841Z,101985.28
2022-12-01T07:52:24.029Z,101988.81
2022-12-01T07:54:51.603Z,101986.41
2022-12-01T07:57:20.512Z,101988.94
2022-12-01T07:59:47.998Z,101984.75
2022-12-01T08:02:15.680Z,101988.09
2022-12-01T08:04:44.788Z,101988.25
2022-12-01T08:07:12.310Z,101989.25
2022-12-01T08:09:39.802Z,101991.06
2022-12-01T08:12:07.579Z,101984.84
2022-12-01T08:14:34.870Z,101989.38
2022-12-01T08:17:02.221Z,101983.13
2022-12-01T08:19:29.488Z,101990.09
2022-12-01T08:21:58.231Z,101989.44
2022-12-01T08:24:25.838Z,101990.44
2022-12-01T08:26:53.288Z,101997.09
2022-12-01T08:29:20.688Z,101988.59
2022-12-01T08:31:48.305Z,101993.31
2022-12-01T08:34:15.929Z,101992.13
2022-12-01T08:36:43.320Z,101983.69
2022-12-01T08:39:12.065Z,101978.44
2022-12-01T08:41:39.412Z,101984.84
2022-12-01T08:44:06.653Z,101983.84
2022-12-01T08:46:35.698Z,101987.19
2022-12-01T08:49:04.046Z,101974.16
2022-12-01T08:51:31.849Z,101982.63
2022-12-01T08:53:59.982Z,101983.78
2022-12-01T08:56:31.347Z,101961.78
2022-12-01T08:58:59.205Z,101963.22
2022-12-01T09:01:26.957Z,101965.19
2022-12-01T09:04:05.870Z,101957.81
2022-12-01T09:06:39.577Z,101942.59
2022-12-01T09:09:07.512Z,101956.50
2022-12-01T09:11:36.208Z,101954.50
2022-12-01T09:14:03.988Z,101964.28
2022-12-01T09:16:31.476Z,101964.13
2022-12-01T09:18:58.748Z,101970.56
2022-12-01T09:21:28.006Z,101960.53
2022-12-01T09:23:55.281Z,101961.22
2022-12-01T09:26:23.693Z,101956.91
2022-12-01T09:28:54.862Z,101962.66
2022-12-01T09:31:25.453Z,101956.09
2022-12-01T09:33:57.032Z,101957.75
2022-12-01T09:36:24.882Z,101959.38
2022-12-01T09:38:52.646Z,101956.94
2022-12-01T09:41:23.877Z,101961.28
2022-12-01T09:43:58.686Z,101969.66
2022-12-01T09:46:29.538Z,101963.34
2022-12-01T09:48:58.135Z,101969.69
2022-12-01T09:51:28.435Z,101967.69
2022-12-01T09:53:59.006Z,101967.38
2022-12-01T09:56:29.168Z,101965.31
2022-12-01T09:59:01.541Z,101967.16
2022-12-01T10:01:33.658Z,101955.59
2022-12-01T10:04:06.372Z,101965.56
2022-12-01T10:06:38.796Z,101933.00
2022-12-01T10:09:21.053Z,101953.84
2022-12-01T10:11:53.087Z,101953.03
2022-12-01T10:14:22.314Z,101959.00
2022-12-01T10:17:01.225Z,101955.16
2022-12-01T10:19:35.129Z,101951.25
2022-12-01T10:22:19.960Z,101942.34
2022-12-01T10:24:55.315Z,101944.13
2022-12-01T10:27:36.861Z,101940.91
2022-12-01T10:30:09.991Z,101939.22
2022-12-01T10:32:48.799Z,101942.44
2022-12-01T10:35:17.617Z,101941.47
2022-12-01T10:37:46.138Z,101940.50
2022-12-01T10:40:15.697Z,101927.22
2022-12-01T10:42:44.509Z,101925.50
2022-12-01T10:45:19.513Z,101919.56
2022-12-01T10:48:09.529Z,101931.25
2022-12-01T10:50:37.478Z,101931.25
2022-12-01T10:53:05.209Z,101934.66
2022-12-01T10:55:35.704Z,101939.72
2022-12-01T10:58:13.756Z,101937.19
2022-12-01T11:01:02.437Z,101941.22
2022-12-01T11:03:32.667Z,101935.41
2022-12-01T11:06:01.976Z,101937.03
2022-12-01T11:08:38.858Z,101932.91
2022-12-01T11:11:06.897Z,101929.47
2022-12-01T11:13:36.944Z,101921.03
2022-12-01T11:16:07.368Z,101929.22
2022-12-01T11:18:36.885Z,101934.09
2022-12-01T11:21:10.709Z,101926.59
2022-12-01T11:23:46.701Z,101939.00
2022-12-01T11:26:17.918Z,101943.91
2022-12-01T11:28:53.783Z,101940.53
2022-12-01T11:31:35.047Z,101925.56
2022-12-01T11:34:02.768Z,101933.84
2022-12-01T11:36:38.509Z,101936.25
2022-12-01T11:39:05.872Z,101923.91
2022-12-01T11:41:36.590Z,101928.84
2022-12-01T11:44:22.362Z,101904.78
2022-12-01T11:47:21.632Z,101914.03
2022-12-01T11:49:48.332Z,101923.97
2022-12-01T11:52:24.203Z,101899.63
2022-12-01T11:54:57.690Z,101928.00
2022-12-01T11:57:34.172Z,101933.75
2022-12-01T12:00:02.897Z,101935.22
2022-12-01T12:02:42.980Z,101940.88
2022-12-01T12:05:33.568Z,101932.59
2022-12-01T12:08:09.199Z,101935.06
2022-12-01T12:10:46.645Z,101927.50
2022-12-01T12:13:42.343Z,101926.56
2022-12-01T12:16:16.753Z,101931.47
2022-12-01T12:19:03.251Z,101929.72
2022-12-01T12:21:34.332Z,101925.47
2022-12-01T12:24:16.722Z,101941.19
2022-12-01T12:26:51.959Z,101930.28
2022-12-01T12:29:43.580Z,101934.41
2022-12-01T12:32:27.481Z,101941.06
2022-12-01T12:35:04.608Z,101932.84
2022-12-01T12:37:42.293Z,101933.75
2022-12-01T12:40:29.820Z,101938.72
2022-12-01T12:43:13.180Z,101943.59
2022-12-01T12:45:51.658Z,101941.88
2022-12-01T12:48:57.338Z,101928.59
2022-12-01T12:51:35.391Z,101936.88
2022-12-01T12:54:15.580Z,101934.28
2022-12-01T12:56:47.659Z,101928.25
2022-12-01T12:59:22.034Z,101917.44
2022-12-01T13:01:57.662Z,101929.19
2022-12-01T13:04:32.397Z,101924.19
2022-12-01T13:07:05.540Z,101919.25
2022-12-01T13:09:38.160Z,101917.50
2022-12-01T13:12:09.989Z,101931.44
2022-12-01T13:14:41.099Z,101918.94
2022-12-01T13:17:16.387Z,101932.97
2022-12-01T13:19:46.159Z,101934.53
2022-12-01T13:22:17.098Z,101927.88
2022-12-01T13:24:44.627Z,101926.16
2022-12-01T13:27:19.538Z,101916.22
2022-12-01T13:29:49.565Z,101921.16
2022-12-01T13:32:31.852Z,101913.66
2022-12-01T13:35:00.820Z,101932.66
2022-12-01T13:37:32.201Z,101926.78
2022-12-01T13:40:10.022Z,101926.66
2022-12-01T13:42:41.081Z,101919.81
2022-12-01T13:45:16.189Z,101924.78
2022-12-01T13:47:51.632Z,101928.91
2022-12-01T13:50:54.655Z,101910.50
2022-12-01T13:53:28.972Z,101919.00
2022-12-01T13:55:59.486Z,101918.09
2022-12-01T13:58:48.929Z,101915.50
2022-12-01T14:01:49.354Z,101917.19
2022-12-01T14:04:37.715Z,101914.75
2022-12-01T14:07:30.977Z,101913.69
2022-12-01T14:10:22.832Z,101912.84
2022-12-01T14:12:52.115Z,101882.06
2022-12-01T14:15:33.337Z,101910.41
2022-12-01T14:18:06.339Z,101899.53
2022-12-01T14:20:37.945Z,101897.72
2022-12-01T14:23:16.226Z,101911.84
2022-12-01T14:25:59.198Z,101886.06
2022-12-01T14:28:59.201Z,101908.59
2022-12-01T14:32:05.077Z,101905.13
2022-12-01T14:34:34.868Z,101911.66
2022-12-01T14:37:11.523Z,101884.91
2022-12-01T14:39:42.405Z,101913.00
2022-12-01T14:42:39.972Z,101885.53
2022-12-01T14:45:13.578Z,101905.44
2022-12-01T14:47:42.465Z,101917.91
2022-12-01T14:50:15.701Z,101903.00
2022-12-01T14:52:47.234Z,101902.16
2022-12-01T14:55:18.346Z,101882.81
2022-12-01T14:57:50.023Z,101902.78
2022-12-01T15:00:20.307Z,101910.25
2022-12-01T15:02:55.139Z,101903.56
2022-12-01T15:05:25.243Z,101885.16
2022-12-01T15:07:58.845Z,101907.69
2022-12-01T15:10:35.562Z,101915.16
2022-12-01T15:13:20.952Z,101900.34
2022-12-01T15:15:51.149Z,101906.25
2022-12-01T15:18:23.016Z,101912.84
2022-12-01T15:20:56.518Z,101916.84
2022-12-01T15:23:23.703Z,101913.50
2022-12-01T15:25:50.641Z,101909.28
2022-12-01T15:28:19.992Z,101906.72
2022-12-01T15:30:49.717Z,101901.63
2022-12-01T15:33:26.724Z,101900.81
2022-12-01T15:35:55.834Z,101900.72
2022-12-01T15:38:27.346Z,101911.47
2022-12-01T15:43:53.711Z,101892.38
2022-12-01T15:46:27.732Z,101900.69
2022-12-01T15:49:07.338Z,101891.50
2022-12-01T15:51:35.202Z,101900.56
2022-12-01T15:54:03.645Z,101903.00
2022-12-01T15:56:33.715Z,101899.72
2022-12-01T15:59:09.527Z,101893.09
2022-12-01T16:01:37.832Z,101884.84
2022-12-01T16:04:14.497Z,101893.09
2022-12-01T16:06:42.437Z,101882.44
2022-12-01T16:09:21.833Z,101869.69
2022-12-01T16:12:07.440Z,101877.09
2022-12-01T16:14:36.745Z,101893.00
2022-12-01T16:17:08.958Z,101876.25
2022-12-01T16:19:36.466Z,101894.63
2022-12-01T16:22:15.999Z,101891.97
2022-12-01T16:24:47.313Z,101888.75
2022-12-01T16:27:21.245Z,101886.25
2022-12-01T16:29:53.056Z,101888.75
2022-12-01T16:32:23.919Z,101896.91
2022-12-01T16:34:53.336Z,101885.03
2022-12-01T16:37:22.377Z,101900.00
2022-12-01T16:39:50.141Z,101891.63
2022-12-01T16:42:20.717Z,101886.72
2022-12-01T16:44:49.015Z,101894.09
2022-12-01T16:47:20.426Z,101898.16
2022-12-01T16:49:48.183Z,101890.69
2022-12-01T16:52:43.236Z,101895.63
2022-12-01T16:55:03.822Z,101893.75
2022-12-01T16:57:31.083Z,101891.22
2022-12-01T16:59:58.418Z,101887.16
2022-12-01T17:02:27.249Z,101880.66
2022-12-01T17:04:54.568Z,101879.00
2022-12-01T17:07:21.929Z,101868.88
2022-12-01T17:09:49.247Z,101888.78
2022-12-01T17:12:16.600Z,101878.78
2022-12-01T17:14:44.011Z,101871.94
2022-12-01T17:17:11.364Z,101887.00
2022-12-01T17:19:39.980Z,101878.63
2022-12-01T17:22:07.344Z,101873.69
2022-12-01T17:24:34.597Z,101876.16
2022-12-01T17:27:01.820Z,101876.09
2022-12-01T17:29:29.173Z,101870.41
2022-12-01T17:31:56.581Z,101872.78
2022-12-01T17:34:23.869Z,101874.41
2022-12-01T17:36:55.011Z,101864.53
2022-12-01T17:39:22.603Z,101870.25
2022-12-01T17:41:50.129Z,101866.91
2022-12-01T17:44:17.445Z,101861.94
2022-12-01T17:46:44.739Z,101871.94
2022-12-01T17:49:14.794Z,101870.16
2022-12-01T17:51:42.244Z,101872.63
2022-12-01T17:54:11.002Z,101877.53
2022-12-01T17:56:38.204Z,101878.16
2022-12-01T17:59:05.408Z,101879.84
2022-12-01T18:01:32.902Z,101877.47
2022-12-01T18:04:00.413Z,101878.31
2022-12-01T18:06:31.133Z,101877.34
2022-12-01T18:08:59.793Z,101893.09
2022-12-01T18:11:28.640Z,101889.00
2022-12-01T18:13:56.610Z,101899.69
2022-12-01T18:16:26.188Z,101889.56
2022-12-01T18:18:54.599Z,101892.91
2022-12-01T18:21:23.688Z,101891.19
2022-12-01T18:23:52.214Z,101888.69
2022-12-01T18:26:21.964Z,101877.09
2022-12-01T18:28:54.981Z,101888.78
2022-12-01T18:31:22.382Z,101890.44
2022-12-01T18:33:49.980Z,101887.03
2022-12-01T18:36:18.965Z,101880.31
2022-12-01T18:38:47.484Z,101896.16
2022-12-01T18:41:15.440Z,101875.41
2022-12-01T18:43:42.756Z,101898.56
2022-12-01T18:46:13.108Z,101888.56
2022-12-01T18:48:44.788Z,101896.16
2022-12-01T18:51:12.968Z,101882.03
2022-12-01T18:53:41.245Z,101885.41
2022-12-01T18:56:12.033Z,101882.66
2022-12-01T18:58:39.918Z,101880.31
2022-12-01T19:01:21.155Z,101876.19
2022-12-01T19:03:52.159Z,101874.63
2022-12-01T19:06:19.885Z,101878.88
2022-12-01T19:08:47.157Z,101888.03
2022-12-01T19:11:15.117Z,101880.69
2022-12-01T19:13:42.453Z,101884.06
2022-12-01T19:16:16.062Z,101886.53
2022-12-01T19:18:45.549Z,101878.31
2022-12-01T19:21:15.068Z,101884.94
2022-12-01T19:23:42.781Z,101876.41
2022-12-01T19:26:12.429Z,101870.56
2022-12-01T19:28:42.288Z,101883.09
2022-12-01T19:31:11.353Z,101894.56
2022-12-01T19:33:38.990Z,101896.31
2022-12-01T19:36:10.128Z,101885.34
2022-12-01T19:38:37.780Z,101899.41
2022-12-01T19:41:06.877Z,101888.66
2022-12-01T19:43:34.600Z,101882.03
2022-12-01T19:46:05.227Z,101891.13
2022-12-01T19:48:32.722Z,101880.28
2022-12-01T19:51:00.119Z,101890.19
2022-12-01T19:53:33.247Z,101886.03
2022-12-01T19:56:02.021Z,101892.66
2022-12-01T19:58:32.030Z,101879.22
2022-12-01T20:01:03.139Z,101887.63
2022-12-01T20:03:30.587Z,101889.13
2022-12-01T20:06:01.990Z,101884.97
2022-12-01T20:08:35.031Z,101890.75
2022-12-01T20:11:04.440Z,101895.53
2022-12-01T20:13:32.242Z,101900.53
2022-12-01T20:16:04.549Z,101905.38
2022-12-01T20:18:32.576Z,101897.91
2022-12-01T20:21:04.656Z,101907.72
2022-12-01T20:23:33.443Z,101917.63
2022-12-01T20:26:01.581Z,101915.19
2022-12-01T20:28:29.243Z,101909.44
2022-12-01T20:30:57.155Z,101904.38
2022-12-01T20:33:24.972Z,101921.03
2022-12-01T20:35:52.303Z,101921.09
2022-12-01T20:38:25.775Z,101928.47
2022-12-01T20:40:56.277Z,101935.16
2022-12-01T20:43:23.535Z,101929.41
2022-12-01T20:45:50.961Z,101925.25
2022-12-01T20:48:18.760Z,101930.03
2022-12-01T20:50:46.101Z,101929.06
2022-12-01T20:53:13.438Z,101914.13
2022-12-01T20:55:41.146Z,101919.91
2022-12-01T20:58:10.431Z,101912.47
2022-12-01T21:00:39.605Z,101903.25
2022-12-01T21:03:06.886Z,101911.63
2022-12-01T21:05:34.301Z,101912.50
2022-12-01T21:08:02.089Z,101886.81
2022-12-01T21:10:29.481Z,101891.13
2022-12-01T21:13:18.583Z,101887.91
2022-12-01T21:15:56.282Z,101878.72
2022-12-01T21:18:31.286Z,101882.94
2022-12-01T21:21:04.329Z,101891.94
2022-12-01T21:23:31.588Z,101892.81
2022-12-01T21:25:58.963Z,101891.06
2022-12-01T21:28:27.284Z,101905.09
2022-12-01T21:31:08.051Z,101889.28
2022-12-01T21:33:37.111Z,101905.06
2022-12-01T21:36:14.829Z,101904.97
2022-12-01T21:38:42.677Z,101909.63
2022-12-01T21:41:16.264Z,101912.00
2022-12-01T21:43:43.485Z,101907.06
2022-12-01T21:46:15.340Z,101896.94
2022-12-01T21:48:43.216Z,101902.66
2022-12-01T21:51:16.602Z,101894.25
2022-12-01T21:53:44.047Z,101890.94
2022-12-01T21:56:20.261Z,101896.50
2022-12-01T21:58:48.217Z,101889.72
2022-12-01T22:01:21.856Z,101892.06
2022-12-01T22:03:50.049Z,101898.75
2022-12-01T22:06:30.893Z,101886.09
2022-12-01T22:09:01.157Z,101880.25
2022-12-01T22:11:29.838Z,101894.53
2022-12-01T22:14:05.141Z,101890.47
2022-12-01T22:16:35.761Z,101883.00
2022-12-01T22:19:20.959Z,101884.66
2022-12-01T22:21:50.312Z,101892.16
2022-12-01T22:24:25.870Z,101888.91
2022-12-01T22:27:12.077Z,101875.66
2022-12-01T22:29:42.309Z,101865.59
2022-12-01T22:32:33.079Z,101898.84
2022-12-01T22:35:18.785Z,101897.03
2022-12-01T22:37:48.994Z,101901.94
2022-12-01T22:40:37.971Z,101890.28
2022-12-01T22:43:22.516Z,101900.97
2022-12-01T22:45:53.035Z,101896.81
2022-12-01T22:48:31.822Z,101896.91
2022-12-01T22:51:09.242Z,101869.34
2022-12-01T22:53:36.459Z,101882.84
2022-12-01T22:56:24.553Z,101866.81
2022-12-01T22:58:52.357Z,101881.03
2022-12-01T23:01:25.422Z,101893.38
2022-12-01T23:04:08.056Z,101888.34
2022-12-01T23:07:00.188Z,101894.31
2022-12-01T23:09:32.628Z,101893.44
2022-12-01T23:12:05.040Z,101892.59
2022-12-01T23:14:34.106Z,101890.06
2022-12-01T23:17:07.451Z,101886.91
2022-12-01T23:19:36.183Z,101886.84
2022-12-01T23:22:03.483Z,101895.06
2022-12-01T23:24:33.851Z,101898.41
2022-12-01T23:27:02.141Z,101894.22
2022-12-01T23:29:30.531Z,101891.78
2022-12-01T23:31:58.024Z,101888.53
2022-12-01T23:34:25.326Z,101887.78
2022-12-01T23:36:54.290Z,101886.94
2022-12-01T23:39:30.300Z,101890.16
2022-12-01T23:41:57.847Z,101894.25
2022-12-01T23:44:39.726Z,101889.25
2022-12-01T23:47:15.081Z,101897.47
2022-12-01T23:49:42.601Z,101890.13
2022-12-01T23:52:16.392Z,101879.53
2022-12-01T23:54:43.613Z,101901.84
2022-12-01T23:57:16.808Z,101886.16
2022-12-01T23:59:45.021Z,101887.13
